KGUY

Details ICAO KGUY
Name GUYMON MUNI
Region United States
Timezone America/Chicago (UTC-5.0)
Plans Departing 4
Arriving 2
Stats Elevation 3,123 ft / 952 m (AMSL)
Location 36.683265° -101.506356°
Runways 2
Magnetic Variation 6.080° E
Sunrise 2018-05-21 11:35:43 UTC / 2018-05-21 06:35:43 Local
Sunset 2018-05-22 01:52:24 UTC / 2018-05-21 20:52:24 Local
Advertisement - Login to hide

Runways

ID Width Length Bearing (true) Bearing (mag) Surface Threshold Offset Overrun Length
06 200 ft / 61 m 1,792 ft / 546 m 68.43° 62.35° Grass 0 ft / 0 m 0 ft / 0 m
18 100 ft / 30 m 5,912 ft / 1,802 m 186.09° 180.01° Asphalt 0 ft / 0 m 0 ft / 0 m
24 200 ft / 61 m 1,792 ft / 546 m 248.44° 242.36° Grass 0 ft / 0 m 0 ft / 0 m
36 100 ft / 30 m 5,912 ft / 1,802 m 6.09° 0.01° Asphalt 0 ft / 0 m 0 ft / 0 m

Map

Weather


0- 5 10 15 20 25 30 35+ Temperature / ° C

Clouds and Precipitation
Forecast for 2018-05-21 12:00 UTC. Updated 41 minutes ago

Ground ~20,000 ft ~40,000 ft Winds

METAR

KGUY 211153Z AUTO 00000KT 10SM CLR 11/09 A3007 RMK AO2 SLP154 T01060094 10144 20094 58004

TAF

TAF KGUY 211133Z 2112/2212 VRB05KT P6SM SKC FM211700 19014G21KT P6SM SCT250 FM220200 19010KT P6SM BKN250 FM220700 19007KT P6SM SCT080 BKN120 PROB30 2207/2210 -TSRA BKN080CB

Frequencies

Recorded 119.92 MHz ASOS
Unicom 122.70 MHz CTAF/UNICOM
Warning: Do not use this data for real-world aviation or navigation. No guarantee of current accuracy is given.